Terminal Aerodrome Forecast
Issued by NWS New Orleans/Baton Rouge, LA

Home | Current Version | Previous Version | Text Only | Print | Product List | Glossary On
Versions: 1 2 3 4 5 6 7 8 9 10 11 12 13 14 15 16 17 18
000
FTUS44 KLIX 101700
TAFBTR
TAF
KBTR 101727Z 1018/1118 29007KT P6SM BKN035
      TEMPO 1019/1023 VRB15G25KT 1SM TSRA BKN030CB
     FM110000 VRB03KT P6SM SCT200=

USA.gov is the U.S. government's official web portal to all federal, state and local government web resources and services.